Latest Weather Observations for Strahan

IDT60801

Issued at 12:41 pm EST Tuesday 23 April 2019 (issued every 10 minutes, with the page automatically refreshed every 10 minutes)

About weather observations | Map of weather stations | Latest weather observations for TAS | Other Formats
Station Details ID: 097072 Name: STRAHAN AERODROME Lat: -42.16 Lon: 145.29 Height: 21.0 m
Data from the previous 72 hours. | See also: Recent months at Strahan
Date/Time
EST
Temp
°C
App
Temp
°C
Dew
Point
°C
Rel
Hum
%
Delta-T
°C
Wind Press
QNH
hPa
Press
MSL
hPa
Rain since
9am
mm
Dir  Spd
km/h
Gust
km/h
Spd
kts
Gust
kts
23/12:30pm 15.5 11.6 10.9 74 2.4 NNW 22 28 12 15 1027.0 1027.0 0.0
23/12:00pm 15.2 12.1 11.6 79 1.9 NNW 19 24 10 13 1027.3 1027.3 0.0
23/11:36am 15.0 12.2 11.4 79 1.9 NNW 17 26 9 14 1027.6 1027.6 0.0
23/11:30am 14.7 12.1 10.7 77 2.1 N 15 26 8 14 1027.6 1027.6 0.0
23/11:27am 14.8 12.7 11.0 78 2.0 N 13 20 7 11 1027.6 1027.6 0.0
23/11:00am 14.1 11.5 10.7 80 1.8 N 15 20 8 11 1027.9 1027.9 0.0
23/10:34am 13.2 10.7 9.8 80 1.7 NNE 13 20 7 11 1028.0 1028.0 0.0
23/10:30am 13.2 10.7 9.8 80 1.7 NNE 13 19 7 10 1028.0 1028.0 0.0
23/10:00am 13.2 10.3 9.5 78 1.9 N 15 20 8 11 1028.2 1028.2 0.0
23/09:30am 12.8 10.1 9.1 78 1.9 NNE 13 17 7 9 1028.3 1028.3 0.0
23/09:00am 11.5 8.6 8.2 80 1.6 NNE 13 19 7 10 1028.3 1028.3 0.2
23/08:30am 10.9 7.9 7.6 80 1.6 NNE 13 19 7 10 1028.0 1028.0 0.2
23/08:00am 10.5 7.4 7.4 81 1.5 NNE 13 19 7 10 1027.7 1027.7 0.2
23/07:30am 10.2 7.1 7.3 82 1.4 NNE 13 17 7 9 1027.4 1027.4 0.2
23/07:00am 9.8 6.7 7.1 83 1.3 NNE 13 17 7 9 1027.1 1027.1 0.2
23/06:30am 9.8 6.7 7.2 84 1.2 NNE 13 17 7 9 1027.1 1027.1 0.2
23/06:00am 9.9 6.8 7.3 84 1.2 NNE 13 19 7 10 1027.1 1027.1 0.2
23/05:30am 9.9 7.2 7.3 84 1.2 NNE 11 15 6 8 1027.1 1027.1 0.2
23/05:00am 9.9 6.8 7.3 84 1.2 NNE 13 17 7 9 1026.9 1026.9 0.2
23/04:30am 9.8 6.3 7.4 85 1.1 NNE 15 20 8 11 1026.9 1026.9 0.2
23/04:00am 9.6 6.5 7.4 86 1.0 NNE 13 17 7 9 1026.9 1026.9 0.2
23/03:30am 9.5 6.4 7.3 86 1.0 NNE 13 17 7 9 1027.0 1027.0 0.2
23/03:00am 9.6 6.5 7.4 86 1.0 NNE 13 17 7 9 1027.2 1027.2 0.2
23/02:30am 9.6 6.6 7.5 87 1.0 NNE 13 17 7 9 1027.3 1027.3 0.2
23/02:00am 9.1 5.3 7.4 89 0.8 NNE 17 19 9 10 1027.5 1027.5 0.2
23/01:30am 8.9 5.4 7.4 90 0.7 NNE 15 17 8 9 1027.8 1027.8 0.2
23/01:00am 8.6 5.9 7.2 91 0.7 NNE 11 15 6 8 1027.7 1027.7 0.2
23/12:30am 8.7 6.0 7.3 91 0.7 NNE 11 15 6 8 1027.7 1027.7 0.2
23/12:00am 8.9 5.9 7.5 91 0.7 NNE 13 15 7 8 1027.5 1027.5 0.2
 
Date/Time
EST
Temp
°C
App
Temp
°C
Dew
Point
°C
Rel
Hum
%
Delta-T
°C
Wind Press
QNH
hPa
Press
MSL
hPa
Rain since
9am
mm
Dir  Spd
km/h
Gust
km/h
Spd
kts
Gust
kts
22/11:30pm 9.1 6.4 7.5 90 0.8 NNE 11 15 6 8 1027.4 1027.4 0.2
22/11:00pm 9.5 6.5 7.8 89 0.8 NNE 13 17 7 9 1027.5 1027.5 0.2
22/10:30pm 9.7 6.3 7.8 88 0.9 NNE 15 17 8 9 1027.8 1027.8 0.2
22/10:00pm 9.7 6.7 7.8 88 0.9 NNE 13 15 7 8 1027.9 1027.9 0.2
22/09:30pm 9.6 6.6 7.9 89 0.8 NNE 13 15 7 8 1027.9 1027.9 0.2
22/09:00pm 9.9 7.0 8.0 88 0.9 NNE 13 15 7 8 1027.7 1027.7 0.2
22/08:30pm 10.1 7.2 8.0 87 1.0 NNE 13 17 7 9 1027.4 1027.4 0.2
22/08:00pm 11.0 8.8 7.9 81 1.5 NNE 9 13 5 7 1027.4 1027.4 0.2
22/07:30pm 11.8 9.9 7.7 76 2.0 NW 7 9 4 5 1027.3 1027.3 0.2
22/07:00pm 12.3 9.8 8.0 75 2.1 WNW 11 13 6 7 1027.1 1027.1 0.2
22/06:30pm 11.6 9.5 8.3 80 1.6 WNW 9 13 5 7 1026.8 1026.8 0.2
22/06:00pm 11.7 9.2 8.0 78 1.8 WNW 11 15 6 8 1026.4 1026.4 0.2
22/05:30pm 12.7 9.5 8.4 75 2.1 WNW 15 19 8 10 1026.1 1026.1 0.2
22/05:00pm 14.1 11.5 9.3 73 2.4 NW 13 20 7 11 1025.5 1025.5 0.2
22/04:30pm 14.4 11.3 9.0 70 2.7 WNW 15 19 8 10 1025.1 1025.1 0.2
22/04:00pm 13.8 10.6 8.6 71 2.6 NW 15 20 8 11 1025.4 1025.4 0.2
22/03:30pm 15.1 11.9 8.3 64 3.4 NNW 15 20 8 11 1025.5 1025.5 0.2
22/03:00pm 15.5 12.7 8.7 64 3.4 NW 13 20 7 11 1025.3 1025.3 0.2
22/02:30pm 14.4 10.3 7.7 64 3.3 WNW 19 26 10 14 1025.1 1025.1 0.2
22/02:00pm 14.9 11.3 9.9 72 2.6 W 19 26 10 14 1024.8 1024.8 0.2
22/01:30pm 14.3 11.3 9.1 71 2.6 WSW 15 19 8 10 1024.7 1024.7 0.2
22/01:00pm 14.0 9.7 9.4 74 2.3 W 22 28 12 15 1024.7 1024.7 0.2
22/12:30pm 13.4 10.2 10.0 80 1.8 WSW 17 26 9 14 1024.8 1024.8 0.0
22/12:00pm 17.1 13.9 11.4 69 3.1 WNW 19 26 10 14 1024.6 1024.6 0.0
22/11:30am 15.9 12.2 9.3 65 3.4 WNW 19 26 10 14 1024.7 1024.7 0.0
22/11:00am 14.2 9.3 8.4 68 2.9 WNW 24 30 13 16 1024.6 1024.6 0.0
22/10:30am 14.9 11.8 10.3 74 2.4 WNW 17 20 9 11 1024.2 1024.2 0.0
22/10:00am 14.1 10.2 8.7 70 2.7 WNW 19 24 10 13 1024.2 1024.2 0.0
22/09:30am 13.3 11.3 10.3 82 1.6 NNE 11 20 6 11 1023.9 1023.9 0.0
22/09:00am 12.0 9.6 9.9 87 1.1 NNE 13 17 7 9 1023.8 1023.8 2.8
22/08:30am 11.7 9.9 9.4 86 1.2 NNE 9 17 5 9 1023.6 1023.6 2.8
22/08:00am 11.1 9.4 10.0 93 0.6 NNE 9 13 5 7 1023.3 1023.3 2.8
22/07:30am 9.9 7.2 8.8 93 0.5 NNE 13 15 7 8 1023.1 1023.1 2.8
22/07:00am 9.8 7.7 8.4 91 0.7 NNE 9 13 5 7 1022.8 1022.8 2.8
22/06:30am 9.9 7.9 8.5 91 0.7 NNE 9 13 5 7 1022.2 1022.2 2.8
22/06:00am 9.8 7.7 8.1 89 0.8 N 9 11 5 6 1022.2 1022.2 2.8
22/05:30am 10.1 8.0 8.4 89 0.8 N 9 13 5 7 1022.1 1022.1 2.8
22/05:00am 10.7 8.2 8.3 85 1.2 W 11 15 6 8 1021.6 1021.6 2.8
22/04:30am 10.6 8.6 8.5 87 1.0 NNE 9 11 5 6 1021.3 1021.3 2.8
22/04:00am 11.1 8.2 8.0 81 1.5 WNW 13 17 7 9 1021.2 1021.2 2.8
22/03:30am 11.6 8.6 9.2 85 1.2 W 15 22 8 12 1021.2 1021.2 2.8
22/03:00am 11.4 8.7 9.0 85 1.2 WNW 13 19 7 10 1021.2 1021.2 2.6
22/02:30am 11.4 8.7 8.8 84 1.3 WNW 13 19 7 10 1021.0 1021.0 2.6
22/02:00am 12.1 8.4 10.0 87 1.1 WNW 20 32 11 17 1021.3 1021.3 2.6
22/01:30am 11.7 7.9 9.9 89 0.9 W 20 30 11 16 1020.8 1020.8 2.6
22/01:00am 11.8 8.2 10.0 89 0.9 W 19 28 10 15 1020.7 1020.7 2.6
22/12:30am 12.3 9.5 9.9 85 1.2 W 15 26 8 14 1020.2 1020.2 2.4
22/12:03am 12.2 8.7 10.3 88 1.0 W 19 24 10 13 1020.0 1020.0 2.4
22/12:00am 12.1 8.6 10.2 88 1.0 W 19 24 10 13 1019.9 1019.9 2.4
 
Date/Time
EST
Temp
°C
App
Temp
°C
Dew
Point
°C
Rel
Hum
%
Delta-T
°C
Wind Press
QNH
hPa
Press
MSL
hPa
Rain since
9am
mm
Dir  Spd
km/h
Gust
km/h
Spd
kts
Gust
kts
21/11:51pm 12.3 8.7 10.5 89 0.9 W 20 28 11 15 1019.9 1019.9 2.4
21/11:50pm 12.3 8.3 10.5 89 0.9 W 22 28 12 15 1019.9 1019.9 2.4
21/11:30pm 12.4 9.1 10.8 90 0.8 W 19 24 10 13 1019.9 1019.9 2.4
21/11:09pm 12.8 8.6 11.2 90 0.8 WNW 24 43 13 23 1020.5 1020.5 1.6
21/11:00pm 12.9 8.8 11.5 91 0.7 WNW 24 35 13 19 1019.7 1019.7 1.4
21/10:47pm 13.1 9.5 11.7 91 0.7 WNW 22 32 12 17 1019.5 1019.5 1.0
21/10:30pm 13.3 9.2 11.5 89 1.0 WNW 24 35 13 19 1019.3 1019.3 0.8
21/10:00pm 13.8 9.5 12.2 90 0.9 WNW 26 37 14 20 1018.9 1018.9 0.2
21/09:30pm 14.7 9.6 13.2 91 0.8 NW 32 41 17 22 1018.5 1018.5 0.0
21/09:24pm 14.6 9.9 13.1 91 0.8 NW 30 41 16 22 1018.4 1018.4 0.0
21/09:17pm 14.9 10.3 13.6 92 0.7 NW 30 39 16 21 1018.3 1018.3 0.0
21/09:00pm 15.3 10.3 13.3 88 1.1 NW 32 43 17 23 1018.2 1018.2 0.0
21/08:39pm 16.1 12.4 13.9 87 1.2 NW 26 39 14 21 1017.8 1017.8 0.0
21/08:30pm 16.4 13.1 14.1 86 1.3 NW 24 37 13 20 1017.7 1017.7 0.0
21/08:00pm 16.7 12.5 13.6 82 1.7 NW 28 37 15 20 1017.3 1017.3 0.0
21/07:30pm 17.1 13.7 13.8 81 1.9 NNW 24 33 13 18 1017.2 1017.2 0.0
21/07:00pm 17.1 13.8 14.0 82 1.8 NNW 24 32 13 17 1016.7 1016.7 0.0
21/06:30pm 17.4 13.5 14.3 82 1.8 NW 28 39 15 21 1016.2 1016.2 0.0
21/06:00pm 18.4 15.5 13.9 75 2.6 NW 22 33 12 18 1015.7 1015.7 0.0
21/05:30pm 19.4 17.4 13.8 70 3.2 NW 17 22 9 12 1015.1 1015.2 0.0
21/05:00pm 20.9 19.2 13.6 63 4.2 NNW 15 19 8 10 1014.5 1014.5 0.0
21/04:30pm 22.4 20.4 14.0 59 4.9 N 17 26 9 14 1014.2 1014.2 0.0
21/04:00pm 22.7 20.4 14.0 58 5.1 N 19 30 10 16 1014.1 1014.1 0.0
21/03:30pm 23.6 21.5 15.1 59 5.1 N 20 28 11 15 1014.1 1014.1 0.0
21/03:00pm 23.5 20.4 14.5 57 5.3 N 24 35 13 19 1014.0 1014.0 0.0
21/02:30pm 23.0 19.3 14.0 57 5.3 N 26 35 14 19 1013.8 1013.8 0.0
21/02:00pm 23.0 19.7 14.0 57 5.3 N 24 33 13 18 1013.8 1013.8 0.0
21/01:30pm 23.2 19.8 13.7 55 5.5 N 24 35 13 19 1013.7 1013.7 0.0
21/01:00pm 23.6 19.0 13.5 53 5.9 N 30 41 16 22 1013.7 1013.7 0.0
21/12:30pm 23.4 20.0 13.6 54 5.7 N 24 41 13 22 1013.9 1013.9 0.0
21/12:00pm 23.6 20.0 13.2 52 6.0 N 24 35 13 19 1014.4 1014.4 0.0
21/11:30am 23.1 19.4 12.7 52 6.0 N 24 39 13 21 1014.6 1014.6 0.0
21/11:00am 23.5 19.0 12.5 50 6.3 NNE 28 39 15 21 1014.4 1014.4 0.0
21/10:44am 23.4 18.7 12.1 49 6.4 NNE 28 46 15 25 1014.5 1014.5 0.0
21/10:30am 23.5 19.7 12.5 50 6.3 NNE 24 39 13 21 1014.6 1014.6 0.0
21/10:00am 21.9 18.9 12.5 55 5.3 NNE 20 35 11 19 1014.4 1014.4 0.0
21/09:30am 21.2 17.6 11.8 55 5.2 NNE 22 28 12 15 1014.8 1014.9 0.0
21/09:00am 20.7 16.6 11.6 56 5.0 NNE 24 37 13 20 1014.9 1015.0 0.0
21/08:30am 20.3 16.1 11.2 56 5.0 NNE 24 39 13 21 1015.0 1015.1 0.0
21/08:00am 20.0 16.2 11.0 56 4.9 NNE 22 35 12 19 1015.1 1015.2 0.0
21/07:30am 19.7 15.0 10.7 56 4.9 NNE 26 37 14 20 1015.0 1015.1 0.0
21/07:00am 19.4 15.1 10.7 57 4.7 NNE 24 35 13 19 1014.9 1015.0 0.0
21/06:30am 19.4 15.1 10.9 58 4.6 NNE 24 37 13 20 1014.9 1015.0 0.0
21/06:00am 19.0 15.4 10.6 58 4.5 NNE 20 30 11 16 1014.8 1014.9 0.0
21/05:30am 18.9 15.2 10.2 57 4.7 NNE 20 32 11 17 1014.9 1015.0 0.0
21/05:00am 19.1 14.4 10.6 58 4.6 NNE 26 35 14 19 1015.0 1015.1 0.0
21/04:41am 19.2 13.8 11.0 59 4.5 NNE 30 48 16 26 1015.1 1015.2 0.0
21/04:30am 19.1 14.5 10.9 59 4.5 NNE 26 39 14 21 1015.1 1015.2 0.0
21/04:00am 17.1 15.3 10.7 66 3.4 NE 11 20 6 11 1015.3 1015.4 0.0
21/03:30am 16.9 15.3 10.3 65 3.5 ENE 9 17 5 9 1015.5 1015.6 0.0
21/03:00am 17.6 14.9 10.2 62 3.9 NE 15 20 8 11 1016.0 1016.0 0.0
21/02:30am 17.7 14.6 10.3 62 3.9 NNE 17 24 9 13 1016.1 1016.1 0.0
21/02:00am 17.9 13.8 10.0 60 4.2 NE 22 33 12 18 1016.2 1016.2 0.0
21/01:30am 18.3 13.8 10.2 59 4.3 NE 24 39 13 21 1016.4 1016.4 0.0
21/01:00am 18.2 13.7 10.1 59 4.3 NNE 24 37 13 20 1016.6 1016.6 0.0
21/12:30am 18.1 14.4 10.2 60 4.2 NNE 20 33 11 18 1017.0 1017.0 0.0
21/12:00am 17.6 13.1 10.0 61 4.0 NNE 24 32 13 17 1017.2 1017.2 0.0
 
Date/Time
EST
Temp
°C
App
Temp
°C
Dew
Point
°C
Rel
Hum
%
Delta-T
°C
Wind Press
QNH
hPa
Press
MSL
hPa
Rain since
9am
mm
Dir  Spd
km/h
Gust
km/h
Spd
kts
Gust
kts
20/11:30pm 17.4 13.6 9.8 61 4.0 NNE 20 30 11 16 1017.4 1017.4 0.0
20/11:00pm 17.5 13.0 9.9 61 4.0 NNE 24 35 13 19 1017.7 1017.7 0.0
20/10:30pm 17.5 13.7 9.9 61 4.0 NNE 20 28 11 15 1018.1 1018.1 0.0
20/10:00pm 17.3 13.6 10.0 62 3.8 NNE 20 26 11 14 1018.1 1018.1 0.0
20/09:30pm 17.4 13.7 10.3 63 3.8 NNE 20 30 11 16 1018.3 1018.3 0.0
20/09:00pm 17.4 13.9 10.3 63 3.8 NNE 19 28 10 15 1018.3 1018.3 0.0
20/08:30pm 17.2 13.7 10.3 64 3.7 NE 19 26 10 14 1018.3 1018.3 0.0
20/08:00pm 17.7 14.3 10.6 63 3.8 NNE 19 26 10 14 1018.8 1018.8 0.0
20/07:30pm 18.1 14.7 10.7 62 4.0 NNE 19 26 10 14 1019.0 1019.0 0.0
20/07:00pm 18.4 14.9 11.0 62 4.0 NNE 20 32 11 17 1019.0 1019.0 0.0
20/06:30pm 19.1 15.3 11.2 60 4.3 NNE 22 33 12 18 1019.2 1019.2 0.0
20/06:00pm 19.6 15.5 11.4 59 4.5 NNE 24 35 13 19 1019.3 1019.3 0.0
20/05:30pm 20.1 16.0 11.3 57 4.8 NNE 24 37 13 20 1019.2 1019.2 0.0
20/05:00pm 21.1 17.8 11.7 55 5.2 NNE 20 28 11 15 1019.3 1019.3 0.0
20/04:30pm 21.9 18.7 11.9 53 5.6 NNE 20 30 11 16 1019.4 1019.4 0.0
20/04:00pm 22.7 19.1 11.7 49 6.2 NNE 22 30 12 16 1019.6 1019.6 0.0
20/03:30pm 23.7 20.4 12.7 50 6.3 N 22 32 12 17 1019.9 1019.9 0.0
20/03:00pm 24.3 21.2 12.3 47 6.8 N 20 30 11 16 1020.1 1020.1 0.0
20/02:30pm 24.2 20.0 11.2 44 7.3 N 24 35 13 19 1020.2 1020.2 0.0
20/02:00pm 24.2 20.0 11.2 44 7.3 N 24 35 13 19 1020.4 1020.4 0.0
20/01:30pm 24.5 21.3 11.8 45 7.2 NNE 20 30 11 16 1020.6 1020.6 0.0
20/01:00pm 24.1 21.0 12.1 47 6.8 NNE 20 33 11 18 1020.9 1020.9 0.0

Other formats

Comma delimited format used in spreadsheet applications
http://www.bom.gov.au/fwo/IDT60801/IDT60801.94956.axf

JavaScript Object Notation format (JSON) in row-major order
http://www.bom.gov.au/fwo/IDT60801/IDT60801.94956.json

Data quality

Most of these data are generated automatically and are frequently updated. Quality checks on data are not normally performed. It is possible for incorrect values to appear. Refer to information at About Latest Weather Observations and please check the disclaimer before using these data.